createdAt,value
2019-06-10T00:00:16.256Z,19.47
2019-06-10T00:02:10.979Z,19.41
2019-06-10T00:03:11.593Z,19.35
2019-06-10T00:05:10.837Z,19.34
2019-06-10T00:06:08.468Z,19.22
2019-06-10T00:08:03.928Z,19.42
2019-06-10T00:10:17.132Z,19.41
2019-06-10T00:11:16.683Z,19.31
2019-06-10T00:13:11.921Z,19.32
2019-06-10T00:14:10.745Z,19.32
2019-06-10T00:16:11.297Z,19.26
2019-06-10T00:17:06.732Z,19.20
2019-06-10T00:18:26.285Z,19.26
2019-06-10T00:19:06.823Z,19.23
2019-06-10T00:20:08.294Z,19.23
2019-06-10T00:21:08.269Z,19.30
2019-06-10T00:22:08.409Z,19.26
2019-06-10T00:23:08.294Z,19.19
2019-06-10T00:24:06.837Z,19.19
2019-06-10T00:25:08.235Z,19.24
2019-06-10T00:26:08.047Z,19.20
2019-06-10T00:27:07.474Z,19.22
2019-06-10T00:28:06.099Z,19.22
2019-06-10T00:29:07.923Z,19.26
2019-06-10T00:30:08.119Z,19.24
2019-06-10T00:31:07.016Z,19.17
2019-06-10T00:32:08.537Z,19.26
2019-06-10T00:33:08.019Z,19.17
2019-06-10T00:34:06.612Z,19.09
2019-06-10T00:35:06.532Z,19.16
2019-06-10T00:36:08.619Z,19.09
2019-06-10T00:37:09.214Z,19.08
2019-06-10T00:38:07.249Z,19.08
2019-06-10T00:39:06.856Z,19.07
2019-06-10T00:40:07.129Z,19.05
2019-06-10T00:41:07.240Z,18.98
2019-06-10T00:42:07.941Z,19.00
2019-06-10T00:43:06.921Z,19.04
2019-06-10T00:44:06.839Z,19.07
2019-06-10T00:45:07.525Z,19.01
2019-06-10T00:46:08.598Z,18.93
2019-06-10T00:47:08.673Z,18.91
2019-06-10T00:48:15.753Z,18.85
2019-06-10T00:49:08.146Z,18.83
2019-06-10T00:50:08.616Z,18.89
2019-06-10T00:51:07.336Z,18.94
2019-06-10T00:52:07.424Z,18.86
2019-06-10T00:53:07.582Z,18.83
2019-06-10T00:54:08.327Z,18.86
2019-06-10T00:55:06.514Z,18.85
2019-06-10T00:56:06.779Z,18.85
2019-06-10T00:57:07.363Z,18.83
2019-06-10T00:58:07.571Z,18.74
2019-06-10T00:59:05.839Z,18.74
2019-06-10T01:00:14.723Z,18.67
2019-06-10T01:01:05.976Z,18.76
2019-06-10T01:02:06.466Z,18.71
2019-06-10T01:03:28.037Z,18.67
2019-06-10T01:04:06.916Z,18.56
2019-06-10T01:05:07.313Z,18.60
2019-06-10T01:06:06.460Z,18.60
2019-06-10T01:07:06.434Z,18.60
2019-06-10T01:08:06.648Z,18.49
2019-06-10T01:09:06.718Z,18.52
2019-06-10T01:10:07.026Z,18.46
2019-06-10T01:11:10.273Z,18.49
2019-06-10T01:12:05.288Z,18.54
2019-06-10T01:13:07.400Z,18.42
2019-06-10T01:14:07.379Z,18.51
2019-06-10T01:15:07.421Z,18.42
2019-06-10T01:16:27.282Z,18.49
2019-06-10T01:17:05.491Z,18.49
2019-06-10T01:18:05.542Z,18.41
2019-06-10T01:19:07.767Z,18.41
2019-06-10T01:20:05.813Z,18.39
2019-06-10T01:21:07.924Z,18.38
2019-06-10T01:22:06.253Z,18.26
2019-06-10T01:23:05.268Z,18.33
2019-06-10T01:24:07.100Z,18.31
2019-06-10T01:25:05.315Z,18.23
2019-06-10T01:26:07.613Z,18.24
2019-06-10T01:27:07.529Z,18.21
2019-06-10T01:28:07.634Z,18.21
2019-06-10T01:29:05.675Z,18.23
2019-06-10T01:30:10.490Z,18.17
2019-06-10T01:31:09.325Z,18.21
2019-06-10T01:32:05.283Z,18.20
2019-06-10T01:33:06.281Z,18.20
2019-06-10T01:34:05.469Z,18.21
2019-06-10T01:35:07.029Z,18.18
2019-06-10T01:36:05.524Z,18.26
2019-06-10T01:37:07.039Z,18.13
2019-06-10T01:38:05.870Z,18.18
2019-06-10T01:39:07.036Z,18.17
2019-06-10T01:40:07.960Z,18.17
2019-06-10T01:41:06.207Z,18.15
2019-06-10T01:42:06.193Z,18.15
2019-06-10T01:43:06.320Z,18.06
2019-06-10T01:44:06.385Z,18.09
2019-06-10T01:45:07.038Z,18.06
2019-06-10T01:46:05.210Z,18.08
2019-06-10T01:47:05.189Z,18.02
2019-06-10T01:48:05.195Z,18.11
2019-06-10T01:49:05.192Z,18.11
2019-06-10T01:50:05.192Z,18.01
2019-06-10T01:51:05.184Z,18.05
2019-06-10T01:52:28.048Z,17.99
2019-06-10T01:53:07.316Z,17.96
2019-06-10T01:54:07.435Z,17.94
2019-06-10T01:55:07.567Z,18.02
2019-06-10T01:56:05.176Z,17.99
2019-06-10T01:57:05.172Z,17.88
2019-06-10T01:58:07.788Z,17.94
2019-06-10T01:59:05.168Z,18.01
2019-06-10T02:00:09.336Z,17.94
2019-06-10T02:01:08.281Z,17.93
2019-06-10T02:02:07.052Z,18.03
2019-06-10T02:03:08.312Z,17.99
2019-06-10T02:04:05.146Z,17.96
2019-06-10T02:05:05.141Z,17.96
2019-06-10T02:06:05.140Z,17.96
2019-06-10T02:07:07.049Z,17.97
2019-06-10T02:08:05.129Z,17.94
2019-06-10T02:09:07.063Z,17.88
2019-06-10T02:10:07.055Z,17.90
2019-06-10T02:11:05.123Z,17.91
2019-06-10T02:12:07.053Z,17.81
2019-06-10T02:13:07.193Z,17.86
2019-06-10T02:14:05.105Z,17.75
2019-06-10T02:15:05.108Z,17.71
2019-06-10T02:16:05.102Z,17.73
2019-06-10T02:17:05.103Z,17.69
2019-06-10T02:18:05.107Z,17.71
2019-06-10T02:19:05.097Z,17.71
2019-06-10T02:20:07.072Z,17.72
2019-06-10T02:21:05.081Z,17.69
2019-06-10T02:22:05.105Z,17.66
2019-06-10T02:23:05.091Z,17.62
2019-06-10T02:24:05.080Z,17.66
2019-06-10T02:25:07.070Z,17.75
2019-06-10T02:26:05.074Z,17.69
2019-06-10T02:27:05.070Z,17.72
2019-06-10T02:28:06.570Z,17.73
2019-06-10T02:29:05.070Z,17.81
2019-06-10T02:30:14.806Z,17.78
2019-06-10T02:31:05.066Z,17.83
2019-06-10T02:32:05.342Z,17.88
2019-06-10T02:33:06.565Z,17.93
2019-06-10T02:34:17.517Z,17.87
2019-06-10T02:35:59.464Z,17.90
2019-06-10T02:36:59.418Z,17.87
2019-06-10T02:38:54.171Z,17.90
2019-06-10T02:39:54.334Z,17.90
2019-06-10T02:41:48.227Z,17.88
2019-06-10T02:42:48.762Z,17.93
2019-06-10T02:44:44.594Z,17.91
2019-06-10T02:45:44.519Z,17.90
2019-06-10T02:47:38.102Z,17.90
2019-06-10T02:48:35.958Z,17.91
2019-06-10T02:50:35.596Z,17.84
2019-06-10T02:51:32.226Z,17.90
2019-06-10T02:53:30.751Z,17.87
2019-06-10T02:54:31.282Z,17.88
2019-06-10T02:56:20.018Z,17.90
2019-06-10T02:57:24.618Z,17.87
2019-06-10T02:59:13.564Z,17.87
2019-06-10T03:00:21.813Z,17.86
2019-06-10T03:02:07.797Z,17.90
2019-06-10T03:03:07.646Z,17.84
2019-06-10T03:05:04.239Z,17.91
2019-06-10T03:06:05.766Z,17.87
2019-06-10T03:07:55.395Z,17.78
2019-06-10T03:08:55.387Z,17.75
2019-06-10T03:10:49.790Z,17.78
2019-06-10T03:11:53.308Z,17.83
2019-06-10T03:13:44.203Z,17.88
2019-06-10T03:14:43.334Z,17.78
2019-06-10T03:16:38.275Z,17.81
2019-06-10T03:17:37.709Z,17.88
2019-06-10T03:19:44.173Z,17.91
2019-06-10T03:20:33.602Z,17.84
2019-06-10T03:22:28.469Z,17.90
2019-06-10T03:23:28.012Z,17.90
2019-06-10T03:25:23.317Z,17.86
2019-06-10T03:26:23.967Z,17.91
2019-06-10T03:28:17.350Z,17.90
2019-06-10T03:29:18.546Z,17.94
2019-06-10T03:30:22.020Z,17.94
2019-06-10T03:31:18.353Z,17.90
2019-06-10T03:32:17.628Z,17.87
2019-06-10T03:33:17.679Z,17.91
2019-06-10T03:34:20.092Z,17.86
2019-06-10T03:35:17.357Z,17.88
2019-06-10T03:36:16.242Z,17.93
2019-06-10T03:37:18.296Z,17.90
2019-06-10T03:38:18.264Z,17.93
2019-06-10T03:39:16.250Z,17.90
2019-06-10T03:40:16.457Z,17.88
2019-06-10T03:41:18.565Z,17.90
2019-06-10T03:42:18.794Z,17.91
2019-06-10T03:43:16.699Z,17.88
2019-06-10T03:44:16.903Z,17.91
2019-06-10T03:45:19.034Z,17.88
2019-06-10T03:46:17.235Z,17.88
2019-06-10T03:47:18.889Z,17.81
2019-06-10T03:48:17.165Z,17.90
2019-06-10T03:49:17.124Z,17.81
2019-06-10T03:50:17.182Z,17.91
2019-06-10T03:51:19.182Z,17.86
2019-06-10T03:52:19.174Z,17.88
2019-06-10T03:53:17.156Z,17.86
2019-06-10T03:54:18.062Z,17.90
2019-06-10T03:55:19.214Z,17.91
2019-06-10T03:56:19.072Z,17.90
2019-06-10T03:57:18.899Z,17.87
2019-06-10T03:58:17.802Z,17.87
2019-06-10T03:59:19.805Z,17.88
2019-06-10T04:00:17.498Z,17.75
2019-06-10T04:01:17.420Z,17.91
2019-06-10T04:02:16.186Z,17.91
2019-06-10T04:03:17.274Z,17.90
2019-06-10T04:04:17.824Z,17.91
2019-06-10T04:05:17.373Z,17.91
2019-06-10T04:06:17.815Z,17.81
2019-06-10T04:07:17.991Z,17.76
2019-06-10T04:08:17.816Z,17.87
2019-06-10T04:09:17.228Z,17.84
2019-06-10T04:10:16.051Z,17.81
2019-06-10T04:11:17.813Z,17.76
2019-06-10T04:12:16.040Z,17.76
2019-06-10T04:13:16.044Z,17.76
2019-06-10T04:14:17.803Z,17.81
2019-06-10T04:15:16.024Z,17.81
2019-06-10T04:16:16.033Z,17.79
2019-06-10T04:17:17.837Z,17.78
2019-06-10T04:18:16.025Z,17.81
2019-06-10T04:19:25.821Z,17.78
2019-06-10T04:21:12.859Z,17.87
2019-06-10T04:22:13.038Z,17.90
2019-06-10T04:24:06.920Z,17.91
2019-06-10T04:25:06.508Z,17.94
2019-06-10T04:27:02.754Z,17.96
2019-06-10T04:28:03.024Z,17.99
2019-06-10T04:29:55.579Z,18.01
2019-06-10T04:30:55.527Z,18.01
2019-06-10T04:32:52.913Z,18.03
2019-06-10T04:33:52.371Z,18.05
2019-06-10T04:35:44.535Z,18.09
2019-06-10T04:36:44.525Z,18.12
2019-06-10T04:38:38.918Z,18.21
2019-06-10T04:39:38.917Z,18.20
2019-06-10T04:41:33.459Z,18.30
2019-06-10T04:42:34.344Z,18.36
2019-06-10T04:44:28.156Z,18.42
2019-06-10T04:45:28.024Z,18.36
2019-06-10T04:47:23.750Z,18.45
2019-06-10T04:48:23.547Z,18.52
2019-06-10T04:50:26.167Z,18.66
2019-06-10T04:51:17.039Z,18.63
2019-06-10T04:53:12.895Z,18.66
2019-06-10T04:54:13.383Z,18.71
2019-06-10T04:56:05.799Z,18.68
2019-06-10T04:57:05.790Z,18.71
2019-06-10T04:59:00.178Z,18.75
2019-06-10T05:00:02.567Z,18.83
2019-06-10T05:01:53.564Z,18.82
2019-06-10T05:02:54.116Z,18.85
2019-06-10T05:04:47.940Z,18.98
2019-06-10T05:05:47.925Z,19.01
2019-06-10T05:07:42.965Z,19.04
2019-06-10T05:08:42.785Z,19.05
2019-06-10T05:10:36.710Z,19.04
2019-06-10T05:11:36.674Z,19.12
2019-06-10T05:13:33.265Z,19.09
2019-06-10T05:14:33.181Z,19.13
2019-06-10T05:16:27.532Z,19.05
2019-06-10T05:17:27.475Z,19.22
2019-06-10T05:19:19.617Z,19.24
2019-06-10T05:20:19.685Z,19.26
2019-06-10T05:22:12.900Z,19.24
2019-06-10T05:23:12.883Z,19.31
2019-06-10T05:25:06.483Z,19.30
2019-06-10T05:26:06.457Z,19.31
2019-06-10T05:28:02.908Z,19.31
2019-06-10T05:29:03.058Z,19.42
2019-06-10T05:30:55.430Z,19.41
2019-06-10T05:31:55.419Z,19.47
2019-06-10T05:33:49.849Z,19.56
2019-06-10T05:34:52.649Z,19.52
2019-06-10T05:36:44.208Z,19.62
2019-06-10T05:37:44.204Z,19.52
2019-06-10T05:39:38.605Z,19.59
2019-06-10T05:40:38.587Z,19.63
2019-06-10T05:42:35.858Z,19.81
2019-06-10T05:43:34.569Z,19.70
2019-06-10T05:45:28.008Z,19.78
2019-06-10T05:46:28.662Z,19.75
2019-06-10T05:48:22.682Z,19.84
2019-06-10T05:49:23.115Z,19.84
2019-06-10T05:51:15.103Z,19.99
2019-06-10T05:52:15.095Z,19.94
2019-06-10T05:54:09.486Z,20.17
2019-06-10T05:55:11.993Z,20.27
2019-06-10T05:57:02.867Z,20.36
2019-06-10T05:58:02.870Z,20.44
2019-06-10T05:59:57.264Z,20.85
2019-06-10T06:00:57.251Z,21.11
2019-06-10T06:02:52.364Z,21.25
2019-06-10T06:03:52.939Z,21.35
2019-06-10T06:05:46.473Z,21.47
2019-06-10T06:06:46.469Z,21.47
2019-06-10T06:08:42.917Z,21.84
2019-06-10T06:09:42.713Z,21.81
2019-06-10T06:10:42.414Z,21.75
2019-06-10T06:11:42.856Z,21.69
2019-06-10T06:12:42.410Z,21.59
2019-06-10T06:13:42.989Z,21.59
2019-06-10T06:14:42.567Z,21.55
2019-06-10T06:15:42.428Z,21.47
2019-06-10T06:16:43.218Z,21.44
2019-06-10T06:17:42.964Z,21.43
2019-06-10T06:18:42.252Z,21.40
2019-06-10T06:19:43.183Z,21.45
2019-06-10T06:20:43.479Z,21.45
2019-06-10T06:21:47.007Z,21.43
2019-06-10T06:22:42.853Z,21.43
2019-06-10T06:23:43.410Z,21.40
2019-06-10T06:24:42.782Z,21.53
2019-06-10T06:25:44.367Z,21.45
2019-06-10T06:26:43.180Z,21.44
2019-06-10T06:27:42.078Z,21.45
2019-06-10T06:28:43.028Z,21.55
2019-06-10T06:29:43.141Z,21.41
2019-06-10T06:30:42.281Z,21.40
2019-06-10T06:31:42.984Z,21.38
2019-06-10T06:32:43.403Z,21.43
2019-06-10T06:33:43.284Z,21.34
2019-06-10T06:34:43.024Z,21.41
2019-06-10T06:35:45.718Z,21.45
2019-06-10T06:36:42.253Z,21.43
2019-06-10T06:37:42.794Z,21.48
2019-06-10T06:38:40.891Z,21.50
2019-06-10T06:39:42.910Z,21.50
2019-06-10T06:40:43.306Z,21.53
2019-06-10T06:41:42.775Z,21.78
2019-06-10T06:42:43.331Z,21.94
2019-06-10T06:43:45.063Z,21.91
2019-06-10T06:44:43.360Z,21.85
2019-06-10T06:45:42.654Z,21.75
2019-06-10T06:46:42.947Z,21.71
2019-06-10T06:47:43.514Z,21.66
2019-06-10T06:48:43.680Z,21.59
2019-06-10T06:49:42.552Z,21.74
2019-06-10T06:50:57.270Z,21.66
2019-06-10T06:51:54.036Z,21.75
2019-06-10T06:53:15.605Z,21.77
2019-06-10T06:53:50.554Z,21.81
2019-06-10T06:54:42.439Z,21.81
2019-06-10T06:55:43.162Z,21.91
2019-06-10T06:56:43.495Z,21.98
2019-06-10T06:57:43.167Z,22.06
2019-06-10T06:58:43.429Z,22.03
2019-06-10T06:59:43.137Z,21.97
2019-06-10T07:00:57.402Z,21.91
2019-06-10T07:01:44.058Z,21.90
2019-06-10T07:02:43.294Z,21.90
2019-06-10T07:03:44.661Z,21.90
2019-06-10T07:04:43.176Z,21.96
2019-06-10T07:05:43.204Z,21.96
2019-06-10T07:06:43.026Z,21.91
2019-06-10T07:07:43.139Z,22.00
2019-06-10T07:08:44.715Z,22.09
2019-06-10T07:09:43.217Z,22.04
2019-06-10T07:10:43.406Z,21.98
2019-06-10T07:11:44.767Z,21.98
2019-06-10T07:12:43.429Z,21.96
2019-06-10T07:13:45.580Z,22.12
2019-06-10T07:14:44.432Z,22.01
2019-06-10T07:15:45.676Z,21.98
2019-06-10T07:16:45.614Z,21.94
2019-06-10T07:17:45.113Z,21.97
2019-06-10T07:18:49.897Z,21.88
2019-06-10T07:19:43.739Z,21.91
2019-06-10T07:20:45.103Z,21.78
2019-06-10T07:22:02.566Z,21.82
2019-06-10T07:22:42.773Z,21.85
2019-06-10T07:23:45.144Z,21.90
2019-06-10T07:24:46.817Z,22.01
2019-06-10T07:25:45.482Z,22.13
2019-06-10T07:26:45.337Z,22.22
2019-06-10T07:27:46.373Z,22.22
2019-06-10T07:28:46.659Z,22.25
2019-06-10T07:29:46.451Z,22.27
2019-06-10T07:30:50.061Z,22.30
2019-06-10T07:31:45.970Z,22.31
2019-06-10T07:32:45.387Z,22.30
2019-06-10T07:33:45.161Z,22.33
2019-06-10T07:34:44.126Z,22.44
2019-06-10T07:35:43.401Z,22.51
2019-06-10T07:36:43.560Z,22.55
2019-06-10T07:37:41.830Z,22.64
2019-06-10T07:38:43.690Z,22.70
2019-06-10T07:39:43.352Z,22.73
2019-06-10T07:40:45.217Z,22.74
2019-06-10T07:41:42.060Z,22.78
2019-06-10T07:42:43.685Z,22.81
2019-06-10T07:43:46.568Z,22.85
2019-06-10T07:44:43.581Z,22.78
2019-06-10T07:45:45.169Z,22.83
2019-06-10T07:46:43.757Z,22.89
2019-06-10T07:47:43.500Z,23.04
2019-06-10T07:48:42.239Z,23.03
2019-06-10T07:49:43.572Z,23.17
2019-06-10T07:50:44.148Z,23.29
2019-06-10T07:51:42.119Z,23.33
2019-06-10T07:52:46.084Z,23.29
2019-06-10T07:53:44.324Z,23.36
2019-06-10T07:54:43.439Z,23.45
2019-06-10T07:55:42.157Z,23.48
2019-06-10T07:56:47.851Z,23.46
2019-06-10T07:57:43.948Z,23.42
2019-06-10T07:58:45.005Z,23.56
2019-06-10T07:59:44.523Z,23.51
2019-06-10T08:00:46.544Z,23.48
2019-06-10T08:01:45.914Z,23.52
2019-06-10T08:02:44.220Z,23.71
2019-06-10T08:03:42.543Z,23.76
2019-06-10T08:04:44.209Z,23.82
2019-06-10T08:05:44.366Z,23.79
2019-06-10T08:06:44.055Z,23.78
2019-06-10T08:07:43.793Z,23.92
2019-06-10T08:08:43.938Z,24.00
2019-06-10T08:09:43.832Z,23.96
2019-06-10T08:10:44.773Z,23.86
2019-06-10T08:11:43.951Z,23.84
2019-06-10T08:12:43.685Z,23.88
2019-06-10T08:13:44.725Z,23.67
2019-06-10T08:14:42.752Z,23.82
2019-06-10T08:15:44.286Z,23.67
2019-06-10T08:16:44.790Z,23.74
2019-06-10T08:17:42.957Z,23.78
2019-06-10T08:19:07.926Z,23.73
2019-06-10T08:19:46.255Z,23.76
2019-06-10T08:20:43.183Z,23.81
2019-06-10T08:21:44.093Z,23.88
2019-06-10T08:22:50.111Z,23.76
2019-06-10T08:23:45.097Z,23.84
2019-06-10T08:24:43.704Z,23.76
2019-06-10T08:25:43.773Z,23.78
2019-06-10T08:26:43.659Z,23.81
2019-06-10T08:27:43.938Z,23.85
2019-06-10T08:28:42.466Z,23.84
2019-06-10T08:29:44.395Z,23.94
2019-06-10T08:30:42.979Z,23.86
2019-06-10T08:31:46.533Z,23.96
2019-06-10T08:32:45.292Z,24.01
2019-06-10T08:33:44.371Z,24.00
2019-06-10T08:34:44.612Z,24.19
2019-06-10T08:35:48.333Z,24.28
2019-06-10T08:36:46.085Z,24.28
2019-06-10T08:37:43.248Z,24.36
2019-06-10T08:38:44.984Z,24.45
2019-06-10T08:39:43.101Z,24.48
2019-06-10T08:40:44.901Z,24.48
2019-06-10T08:41:45.593Z,24.47
2019-06-10T08:42:43.736Z,24.38
2019-06-10T08:43:43.766Z,24.44
2019-06-10T08:44:43.612Z,24.47
2019-06-10T08:45:43.652Z,24.68
2019-06-10T08:46:43.654Z,24.74
2019-06-10T08:47:44.303Z,24.84
2019-06-10T08:48:43.840Z,24.85
2019-06-10T08:49:44.215Z,24.97
2019-06-10T08:50:44.740Z,25.04
2019-06-10T08:51:45.453Z,24.99
2019-06-10T08:52:56.908Z,25.06
2019-06-10T08:53:44.699Z,25.11
2019-06-10T08:54:45.700Z,25.06
2019-06-10T08:55:44.045Z,25.15
2019-06-10T08:56:45.207Z,25.12
2019-06-10T08:57:43.653Z,25.18
2019-06-10T08:58:45.706Z,25.23
2019-06-10T08:59:44.814Z,25.21
2019-06-10T09:00:45.092Z,25.31
2019-06-10T09:01:46.037Z,25.37
2019-06-10T09:02:45.193Z,25.48
2019-06-10T09:03:46.430Z,25.45
2019-06-10T09:04:45.577Z,25.55
2019-06-10T09:05:46.031Z,25.49
2019-06-10T09:06:45.435Z,25.63
2019-06-10T09:07:45.456Z,25.63
2019-06-10T09:08:45.411Z,25.75
2019-06-10T09:09:45.734Z,25.59
2019-06-10T09:10:45.624Z,25.66
2019-06-10T09:11:46.871Z,25.51
2019-06-10T09:12:45.451Z,25.53
2019-06-10T09:13:43.790Z,25.52
2019-06-10T09:14:44.007Z,25.48
2019-06-10T09:15:44.650Z,25.43
2019-06-10T09:16:44.411Z,25.49
2019-06-10T09:17:44.726Z,25.40
2019-06-10T09:18:44.469Z,25.34
2019-06-10T09:19:44.526Z,25.38
2019-06-10T09:20:44.942Z,25.38
2019-06-10T09:21:47.172Z,25.31
2019-06-10T09:22:44.891Z,25.33
2019-06-10T09:23:43.559Z,25.33
2019-06-10T09:24:45.541Z,25.38
2019-06-10T09:25:45.190Z,25.38
2019-06-10T09:26:45.041Z,25.49
2019-06-10T09:27:44.269Z,25.52
2019-06-10T09:28:45.010Z,25.58
2019-06-10T09:29:45.329Z,25.48
2019-06-10T09:30:46.793Z,25.52
2019-06-10T09:31:45.607Z,25.38
2019-06-10T09:32:46.585Z,25.43
2019-06-10T09:33:47.933Z,25.40
2019-06-10T09:34:43.123Z,25.36
2019-06-10T09:35:45.663Z,25.40
2019-06-10T09:36:46.276Z,25.40
2019-06-10T09:37:45.893Z,25.37
2019-06-10T09:38:45.362Z,25.41
2019-06-10T09:39:47.217Z,25.46
2019-06-10T09:40:46.531Z,25.34
2019-06-10T09:41:50.321Z,25.41
2019-06-10T09:42:44.546Z,25.37
2019-06-10T09:43:45.356Z,25.31
2019-06-10T09:44:45.117Z,25.30
2019-06-10T09:45:45.264Z,25.34
2019-06-10T09:46:44.587Z,25.34
2019-06-10T09:47:46.738Z,25.26
2019-06-10T09:48:47.057Z,25.33
2019-06-10T09:49:45.361Z,25.28
2019-06-10T09:50:48.801Z,25.30
2019-06-10T09:51:45.850Z,25.36
2019-06-10T09:52:47.146Z,25.43
2019-06-10T09:53:50.286Z,25.41
2019-06-10T09:54:45.761Z,25.38
2019-06-10T09:55:44.524Z,25.36
2019-06-10T09:56:45.097Z,25.48
2019-06-10T09:57:45.579Z,25.43
2019-06-10T09:58:44.694Z,25.48
2019-06-10T09:59:46.116Z,25.58
2019-06-10T10:00:45.197Z,25.63
2019-06-10T10:01:47.262Z,25.77
2019-06-10T10:02:45.019Z,25.81
2019-06-10T10:03:45.363Z,25.75
2019-06-10T10:04:46.703Z,25.85
2019-06-10T10:05:54.580Z,25.85
2019-06-10T10:06:44.823Z,25.82
2019-06-10T10:07:46.297Z,25.63
2019-06-10T10:08:46.079Z,25.52
2019-06-10T10:09:45.447Z,25.58
2019-06-10T10:10:45.968Z,25.45
2019-06-10T10:11:43.991Z,25.46
2019-06-10T10:12:44.047Z,25.53
2019-06-10T10:13:44.118Z,25.52
2019-06-10T10:14:44.777Z,25.51
2019-06-10T10:15:41.955Z,25.55
2019-06-10T10:16:44.109Z,25.64
2019-06-10T10:17:44.484Z,25.59
2019-06-10T10:18:45.798Z,25.64
2019-06-10T10:19:45.312Z,25.61
2019-06-10T10:20:46.819Z,25.70
2019-06-10T10:21:46.901Z,25.59
2019-06-10T10:22:44.078Z,25.66
2019-06-10T10:23:56.820Z,25.77
2019-06-10T10:24:42.935Z,25.74
2019-06-10T10:25:44.921Z,25.88
2019-06-10T10:26:48.231Z,25.92
2019-06-10T10:27:45.551Z,25.93
2019-06-10T10:28:42.859Z,25.93
2019-06-10T10:29:45.401Z,26.04
2019-06-10T10:30:43.562Z,26.11
2019-06-10T10:31:45.012Z,26.05
2019-06-10T10:32:47.070Z,26.10
2019-06-10T10:33:42.614Z,26.05
2019-06-10T10:34:43.765Z,26.15
2019-06-10T10:35:43.167Z,26.26
2019-06-10T10:36:45.389Z,26.39
2019-06-10T10:37:44.574Z,26.45
2019-06-10T10:38:42.582Z,26.41
2019-06-10T10:39:45.148Z,26.43
2019-06-10T10:40:43.967Z,26.46
2019-06-10T10:41:43.173Z,26.21
2019-06-10T10:42:48.153Z,26.15
2019-06-10T10:43:43.674Z,26.19
2019-06-10T10:44:46.643Z,26.10
2019-06-10T10:45:47.311Z,26.20
2019-06-10T10:46:44.382Z,26.16
2019-06-10T10:47:44.890Z,26.07
2019-06-10T10:48:42.956Z,26.05
2019-06-10T10:49:44.922Z,26.03
2019-06-10T10:51:04.633Z,26.05
2019-06-10T10:51:42.899Z,26.01
2019-06-10T10:52:42.845Z,26.10
2019-06-10T10:53:46.815Z,26.23
2019-06-10T10:54:43.211Z,26.15
2019-06-10T10:55:44.059Z,26.20
2019-06-10T10:56:43.637Z,26.23
2019-06-10T10:57:43.149Z,26.27
2019-06-10T10:58:43.601Z,26.19
2019-06-10T10:59:43.554Z,26.36
2019-06-10T11:00:44.781Z,26.34
2019-06-10T11:01:42.745Z,26.34
2019-06-10T11:02:43.155Z,26.41
2019-06-10T11:03:44.944Z,26.41
2019-06-10T11:04:42.970Z,26.51
2019-06-10T11:05:44.744Z,26.49
2019-06-10T11:06:43.034Z,26.49
2019-06-10T11:07:42.398Z,26.64
2019-06-10T11:08:44.151Z,26.67
2019-06-10T11:09:42.542Z,26.79
2019-06-10T11:10:45.338Z,26.89
2019-06-10T11:11:44.020Z,26.95
2019-06-10T11:12:42.954Z,26.88
2019-06-10T11:13:43.243Z,26.97
2019-06-10T11:14:42.487Z,26.97
2019-06-10T11:15:43.417Z,27.10
2019-06-10T11:16:43.133Z,26.95
2019-06-10T11:17:42.660Z,27.08
2019-06-10T11:18:42.346Z,27.15
2019-06-10T11:19:42.021Z,27.15
2019-06-10T11:20:42.027Z,27.25
2019-06-10T11:21:42.705Z,27.20
2019-06-10T11:22:43.391Z,27.26
2019-06-10T11:23:43.714Z,27.25
2019-06-10T11:24:44.591Z,27.30
2019-06-10T11:25:43.145Z,27.19
2019-06-10T11:26:43.123Z,27.27
2019-06-10T11:27:43.142Z,27.27
2019-06-10T11:28:43.094Z,27.25
2019-06-10T11:29:42.326Z,27.32
2019-06-10T11:30:42.600Z,27.34
2019-06-10T11:31:42.700Z,27.26
2019-06-10T11:32:43.219Z,27.26
2019-06-10T11:33:43.464Z,27.22
2019-06-10T11:34:42.881Z,27.17
2019-06-10T11:35:42.812Z,27.23
2019-06-10T11:36:42.634Z,27.19
2019-06-10T11:37:42.824Z,27.13
2019-06-10T11:38:42.119Z,27.12
2019-06-10T11:39:42.135Z,27.07
2019-06-10T11:40:42.859Z,27.01
2019-06-10T11:41:43.123Z,26.90
2019-06-10T11:42:43.573Z,26.86
2019-06-10T11:43:42.965Z,26.85
2019-06-10T11:44:42.603Z,26.88
2019-06-10T11:45:48.073Z,26.78
2019-06-10T11:46:43.021Z,26.76
2019-06-10T11:47:42.629Z,26.79
2019-06-10T11:48:43.451Z,26.76
2019-06-10T11:49:43.406Z,26.71
2019-06-10T11:50:42.907Z,26.76
2019-06-10T11:51:42.193Z,26.75
2019-06-10T11:52:43.341Z,26.71
2019-06-10T11:53:44.055Z,26.75
2019-06-10T11:54:55.689Z,26.68
2019-06-10T11:55:42.434Z,26.70
2019-06-10T11:56:42.309Z,26.49
2019-06-10T11:57:42.475Z,26.42
2019-06-10T11:58:42.747Z,26.31
2019-06-10T11:59:43.475Z,26.33
2019-06-10T12:00:42.699Z,26.21
2019-06-10T12:01:42.779Z,26.27
2019-06-10T12:02:42.547Z,26.30
2019-06-10T12:03:43.229Z,26.27
2019-06-10T12:04:42.273Z,26.21
2019-06-10T12:05:42.263Z,26.26
2019-06-10T12:06:42.701Z,26.19
2019-06-10T12:07:42.825Z,26.30
2019-06-10T12:08:43.591Z,26.31
2019-06-10T12:09:42.591Z,26.41
2019-06-10T12:10:43.444Z,26.45
2019-06-10T12:11:43.671Z,26.45
2019-06-10T12:12:44.148Z,26.33
2019-06-10T12:13:43.022Z,26.28
2019-06-10T12:14:43.181Z,26.31
2019-06-10T12:16:20.847Z,26.19
2019-06-10T12:17:50.606Z,26.05
2019-06-10T12:18:42.810Z,26.12
2019-06-10T12:19:44.160Z,26.04
2019-06-10T12:22:29.722Z,26.04
2019-06-10T12:23:33.834Z,26.07
2019-06-10T12:25:38.769Z,26.20
2019-06-10T12:26:30.122Z,26.26
2019-06-10T12:28:24.521Z,26.28
2019-06-10T12:29:25.204Z,26.30
2019-06-10T12:31:18.894Z,26.48
2019-06-10T12:32:19.615Z,26.63
2019-06-10T12:33:24.799Z,26.60
2019-06-10T12:34:19.436Z,26.67
2019-06-10T12:35:18.907Z,26.75
2019-06-10T12:36:18.916Z,26.82
2019-06-10T12:37:19.309Z,26.88
2019-06-10T12:38:18.927Z,26.93
2019-06-10T12:39:19.377Z,26.94
2019-06-10T12:40:18.932Z,27.01
2019-06-10T12:41:18.943Z,27.01
2019-06-10T12:42:18.960Z,27.05
2019-06-10T12:43:18.946Z,27.12
2019-06-10T12:44:18.946Z,27.04
2019-06-10T12:45:20.341Z,27.05
2019-06-10T12:46:19.283Z,27.05
2019-06-10T12:47:22.677Z,27.15
2019-06-10T12:48:22.039Z,27.03
2019-06-10T12:49:20.375Z,27.04
2019-06-10T12:50:18.991Z,27.12
2019-06-10T12:51:19.108Z,27.08
2019-06-10T12:52:19.444Z,27.13
2019-06-10T12:53:18.992Z,27.07
2019-06-10T12:54:19.006Z,27.15
2019-06-10T12:55:34.820Z,27.07
2019-06-10T12:56:19.040Z,27.08
2019-06-10T12:57:19.060Z,27.13
2019-06-10T12:58:19.362Z,26.98
2019-06-10T12:59:20.638Z,26.95
2019-06-10T13:00:23.842Z,27.05
2019-06-10T13:01:19.048Z,27.01
2019-06-10T13:02:30.477Z,27.04
2019-06-10T13:03:19.367Z,27.00
2019-06-10T13:04:20.628Z,27.12
2019-06-10T13:05:22.692Z,27.08
2019-06-10T13:06:19.162Z,27.00
2019-06-10T13:07:19.264Z,27.15
2019-06-10T13:08:20.523Z,27.12
2019-06-10T13:09:23.555Z,27.27
2019-06-10T13:10:20.565Z,27.20
2019-06-10T13:11:19.212Z,27.22
2019-06-10T13:12:19.209Z,27.27
2019-06-10T13:13:19.107Z,27.20
2019-06-10T13:14:19.232Z,27.30
2019-06-10T13:15:19.132Z,27.26
2019-06-10T13:16:19.143Z,27.22
2019-06-10T13:17:20.482Z,27.23
2019-06-10T13:18:19.717Z,27.23
2019-06-10T13:19:19.155Z,27.20
2019-06-10T13:20:22.902Z,27.31
2019-06-10T13:21:19.156Z,27.20
2019-06-10T13:22:23.046Z,27.20
2019-06-10T13:23:26.685Z,27.19
2019-06-10T13:24:19.177Z,27.23
2019-06-10T13:25:22.133Z,27.15
2019-06-10T13:26:19.952Z,27.13
2019-06-10T13:27:19.734Z,27.13
2019-06-10T13:28:19.202Z,27.01
2019-06-10T13:29:19.228Z,27.16
2019-06-10T13:30:19.557Z,27.01
2019-06-10T13:31:20.061Z,27.05
2019-06-10T13:32:19.242Z,27.07
2019-06-10T13:33:19.259Z,27.05
2019-06-10T13:34:22.139Z,27.10
2019-06-10T13:35:19.398Z,27.15
2019-06-10T13:36:22.925Z,27.12
2019-06-10T13:37:22.777Z,27.22
2019-06-10T13:38:19.264Z,27.23
2019-06-10T13:39:22.302Z,27.31
2019-06-10T13:40:20.022Z,27.27
2019-06-10T13:41:19.270Z,27.25
2019-06-10T13:42:19.331Z,27.32
2019-06-10T13:43:19.294Z,27.38
2019-06-10T13:44:19.298Z,27.54
2019-06-10T13:45:19.520Z,27.64
2019-06-10T13:46:19.595Z,27.52
2019-06-10T13:47:19.312Z,27.52
2019-06-10T13:48:19.631Z,27.58
2019-06-10T13:49:19.354Z,27.53
2019-06-10T13:50:19.532Z,27.58
2019-06-10T13:51:20.022Z,27.53
2019-06-10T13:52:19.351Z,27.49
2019-06-10T13:53:19.356Z,27.52
2019-06-10T13:54:19.377Z,27.49
2019-06-10T13:55:22.226Z,27.50